Accueil
METAR-TAF:

METAR-TAF

Aéroports :

Cassel, Allemagne

latitude: 51-24N, longitude: 009-23E, altitude: 277 m

Observation

Le bulletin a été fait il y a 5 heures et 21 minutes, à 16:50 UTC
Vent 6 kt de ouest
Température 4°C
Humidité 56%
Pression 1020 hPa
Visibilité 10 km ou plus
Nuages épars à une hauteur de 4500 ft

METAR: EDVK 081650Z 27006KT 9999 SCT045 04/M04 Q1020

Heure: 23:11 (22:11 UTC)

Prévision

Le bulletin a été fait il y a 5 heures et 11 minutes, à 17:00 UTC
Prévision valable du 08 à 18 UTC au 09 à 03 UTC
Vent 3 kt de direction variable
Visibilité 10 km ou plus
Nuages épars à une hauteur de 4000 ft
Probabilité 30% :
Temporairement
du 09 à 02 UTC au 09 à 03 UTC
Visibilité: 4000 m
Nuages fragmentés à une hauteur de 1300 ft
Nuages fragmentés à une hauteur de 3500 ft
neige faible

TAF: EDVK 081700Z 0818/0903 VRB03KT 9999 SCT040 PROB30 TEMPO 0902/0903 4000 -SN BKN013 BKN035

Observations et prévisions météorologiques de plus de 4000 aéroports (messages METAR et TAF).

Les stations disponibles sont représentées par des disques jaunes et rouges sur la carte.

Passer la souris dessus pour voir le nom de la station.

Cliquer dessus pour voir les observations et prévisions météorologiques.

Pour changer de carte: cliquez sur les boutons verts avec une croix noire pour zoomer, sur le bouton vert avec un tiret pour effectuer un zoom arrière, ou sur les flèches vertes pour les cartes adjacentes.


METAR-TAF: